Strona główna
METAR-TAF:

METAR-TAF

Lotnisko :

Port lotniczy Belgrad

Belgrad, Serbia

Szerokość geograficzna: 44-49N, Długość geograficzna: 020-17E, wysokość: 96 m

Aktualna obserwacja pogody

Raport powstał 20 minut temu, godzina 13:30 UTC
Wiatr 8 kt od północ, zmienny między północny zachód i północno-północny wschód
Temperatura 15°C
Wilgotność 27%
Ciśnienie 1033 hPa
Widzialność 10 km lub więcej
Brak chmur poniżej 1500 m i brak chmur cumulonimbus

METAR: LYBE 211330Z 35008KT 310V020 CAVOK 15/M04 Q1033 NOSIG

czas: 14:50 (13:50 UTC)

Prognoza

Raport powstał 2 godziny i 50 minut temu, godzina 11:00 UTC
Prognoza ważna od 21 godzina 12 UTC do 22 godzina 12 UTC
Wiatr 6 kt od północ
Widzialność 10 km lub więcej
Brak chmur poniżej 1500 m i brak chmur cumulonimbus

TAF: LYBE 211100Z 2112/2212 36006KT CAVOK TX14/2113Z TN01/2205Z

Obserwacja i prognoza pogody dla ponad 4000 lotnisk (raport METAR i TAF).

Dostępne stacje oznaczono żółtymi i czerwonymi punktami na mapie.

Najedź kursorem aby zobaczyć nazwę stacji.

Kliknij aby zobaczyć obserwacje i prognozy pogody.

Aby zmienić mapę: kliknij na zielony przycisk z czarnym krzyżykiem, aby powiększyć; na zielony przycisk z myślnikiem, aby pomniejszyć; na zielone strzałki, aby przejść do map sąsiednich.


METAR-TAF: